sensor_id;sensor_type;location;lat;lon;timestamp;pressure;altitude;pressure_sealevel;temperature;humidity
62510;BME280;48558;48.242;11.654;2023-01-26T00:02:27;96667.59;;;-0.62;100.00
62510;BME280;48558;48.242;11.654;2023-01-26T00:06:40;96665.34;;;-0.39;100.00
62510;BME280;48558;48.242;11.654;2023-01-26T00:10:53;96647.19;;;-0.14;100.00
62510;BME280;48558;48.242;11.654;2023-01-26T09:32:17;96446.25;;;-0.14;100.00
62510;BME280;48558;48.242;11.654;2023-01-26T09:36:29;96448.56;;;-0.12;100.00
62510;BME280;48558;48.242;11.654;2023-01-26T09:40:47;96454.00;;;-0.05;100.00
62510;BME280;48558;48.242;11.654;2023-01-26T09:54:24;96458.66;;;-0.16;100.00
62510;BME280;48558;48.242;11.654;2023-01-26T09:59:04;96445.06;;;-0.06;100.00
62510;BME280;48558;48.242;11.654;2023-01-26T10:03:39;96455.94;;;-0.16;100.00
62510;BME280;48558;48.242;11.654;2023-01-26T10:07:57;96453.22;;;-0.20;100.00
62510;BME280;48558;48.242;11.654;2023-01-26T10:12:20;96440.78;;;0.00;100.00
62510;BME280;48558;48.242;11.654;2023-01-26T10:16:36;96430.69;;;0.01;100.00
62510;BME280;48558;48.242;11.654;2023-01-26T10:20:54;96424.53;;;-0.14;100.00
62510;BME280;48558;48.242;11.654;2023-01-26T10:25:18;96429.16;;;0.00;100.00
62510;BME280;48558;48.242;11.654;2023-01-26T10:29:35;96425.16;;;0.36;100.00
62510;BME280;48558;48.242;11.654;2023-01-26T10:33:54;96424.47;;;0.11;100.00
62510;BME280;48558;48.242;11.654;2023-01-26T10:38:39;96417.44;;;0.14;100.00
62510;BME280;48558;48.242;11.654;2023-01-26T10:42:57;96421.38;;;-0.02;100.00
62510;BME280;48558;48.242;11.654;2023-01-26T10:47:15;96401.25;;;-0.22;100.00
62510;BME280;48558;48.242;11.654;2023-01-26T10:51:32;96424.13;;;-0.30;100.00
62510;BME280;48558;48.242;11.654;2023-01-26T10:56:13;96410.56;;;-0.37;100.00
62510;BME280;48558;48.242;11.654;2023-01-26T11:00:31;96410.56;;;-0.23;100.00
62510;BME280;48558;48.242;11.654;2023-01-26T11:09:27;96407.03;;;-0.13;100.00
62510;BME280;48558;48.242;11.654;2023-01-26T11:13:40;96395.03;;;-0.12;100.00
62510;BME280;48558;48.242;11.654;2023-01-26T11:17:58;96408.59;;;-0.05;100.00
62510;BME280;48558;48.242;11.654;2023-01-26T11:22:16;96410.13;;;-0.11;100.00
62510;BME280;48558;48.242;11.654;2023-01-26T11:31:27;96410.16;;;-0.07;100.00
62510;BME280;48558;48.242;11.654;2023-01-26T11:36:17;96410.94;;;-0.35;100.00
62510;BME280;48558;48.242;11.654;2023-01-26T11:50:46;96400.44;;;-0.15;100.00
62510;BME280;48558;48.242;11.654;2023-01-26T12:00:00;96390.38;;;-0.43;100.00
62510;BME280;48558;48.242;11.654;2023-01-26T12:04:21;96381.50;;;-0.57;100.00
62510;BME280;48558;48.242;11.654;2023-01-26T12:08:36;96376.81;;;-0.43;100.00
62510;BME280;48558;48.242;11.654;2023-01-26T12:12:59;96379.16;;;-0.55;100.00
62510;BME280;48558;48.242;11.654;2023-01-26T12:17:32;96378.78;;;-0.54;100.00
62510;BME280;48558;48.242;11.654;2023-01-26T12:21:48;96363.28;;;-0.64;100.00
62510;BME280;48558;48.242;11.654;2023-01-26T12:26:09;96362.50;;;-0.43;100.00
62510;BME280;48558;48.242;11.654;2023-01-26T12:31:03;96360.94;;;-0.41;100.00
62510;BME280;48558;48.242;11.654;2023-01-26T12:40:07;96361.69;;;-0.40;100.00
62510;BME280;48558;48.242;11.654;2023-01-26T12:49:34;96344.63;;;-0.23;100.00
62510;BME280;48558;48.242;11.654;2023-01-26T12:58:20;96350.06;;;-0.23;100.00
62510;BME280;48558;48.242;11.654;2023-01-26T13:02:35;96347.75;;;-0.46;100.00
62510;BME280;48558;48.242;11.654;2023-01-26T13:07:03;96345.75;;;-0.14;100.00
62510;BME280;48558;48.242;11.654;2023-01-26T13:25:04;96342.28;;;-0.28;100.00
62510;BME280;48558;48.242;11.654;2023-01-26T13:33:39;96348.09;;;-0.26;100.00
62510;BME280;48558;48.242;11.654;2023-01-26T13:42:56;96336.88;;;-0.32;100.00
62510;BME280;48558;48.242;11.654;2023-01-26T13:47:27;96339.16;;;-0.20;100.00
62510;BME280;48558;48.242;11.654;2023-01-26T13:51:45;96322.94;;;-0.48;100.00
62510;BME280;48558;48.242;11.654;2023-01-26T13:56:34;96341.16;;;-0.45;100.00
62510;BME280;48558;48.242;11.654;2023-01-26T14:01:05;96334.19;;;-0.56;100.00
62510;BME280;48558;48.242;11.654;2023-01-26T14:05:21;96333.00;;;-0.34;100.00
62510;BME280;48558;48.242;11.654;2023-01-26T14:09:44;96331.09;;;-0.55;100.00
62510;BME280;48558;48.242;11.654;2023-01-26T14:14:00;96343.50;;;-0.61;100.00
62510;BME280;48558;48.242;11.654;2023-01-26T14:18:50;96340.78;;;-0.50;100.00
62510;BME280;48558;48.242;11.654;2023-01-26T14:27:37;96351.19;;;-0.14;100.00
62510;BME280;48558;48.242;11.654;2023-01-26T14:31:54;96344.66;;;-0.41;100.00
62510;BME280;48558;48.242;11.654;2023-01-26T14:36:17;96350.88;;;-0.68;100.00
62510;BME280;48558;48.242;11.654;2023-01-26T14:40:47;96347.38;;;-0.62;100.00
62510;BME280;48558;48.242;11.654;2023-01-26T14:45:01;96337.69;;;-0.56;100.00
62510;BME280;48558;48.242;11.654;2023-01-26T14:54:09;96329.16;;;-0.58;100.00
62510;BME280;48558;48.242;11.654;2023-01-26T14:58:31;96337.69;;;-0.74;100.00
62510;BME280;48558;48.242;11.654;2023-01-26T15:02:47;96344.28;;;-0.64;100.00
62510;BME280;48558;48.242;11.654;2023-01-26T15:11:54;96338.84;;;-0.57;100.00
62510;BME280;48558;48.242;11.654;2023-01-26T15:16:28;96316.41;;;-0.82;100.00
62510;BME280;48558;48.242;11.654;2023-01-26T15:21:08;96338.84;;;-0.60;100.00
62510;BME280;48558;48.242;11.654;2023-01-26T15:25:32;96342.72;;;-0.65;100.00
62510;BME280;48558;48.242;11.654;2023-01-26T15:29:45;96327.63;;;-0.69;100.00
62510;BME280;48558;48.242;11.654;2023-01-26T15:33:58;96355.91;;;-0.67;100.00
62510;BME280;48558;48.242;11.654;2023-01-26T15:38:13;96342.34;;;-0.88;100.00
62510;BME280;48558;48.242;11.654;2023-01-26T15:42:26;96362.88;;;-0.87;100.00
62510;BME280;48558;48.242;11.654;2023-01-26T15:46:41;96363.66;;;-0.87;100.00
62510;BME280;48558;48.242;11.654;2023-01-26T15:50:54;96347.78;;;-1.02;100.00
62510;BME280;48558;48.242;11.654;2023-01-26T15:55:28;96371.41;;;-0.75;100.00
62510;BME280;48558;48.242;11.654;2023-01-26T15:59:50;96346.22;;;-0.96;100.00
62510;BME280;48558;48.242;11.654;2023-01-26T16:04:12;96354.75;;;-0.98;100.00
62510;BME280;48558;48.242;11.654;2023-01-26T16:08:30;96339.66;;;-1.02;100.00
62510;BME280;48558;48.242;11.654;2023-01-26T16:12:44;96307.84;;;-1.30;100.00
62510;BME280;48558;48.242;11.654;2023-01-26T16:16:59;96356.28;;;-0.97;100.00
62510;BME280;48558;48.242;11.654;2023-01-26T16:21:20;96342.75;;;-1.00;100.00
62510;BME280;48558;48.242;11.654;2023-01-26T16:25:36;96344.66;;;-0.97;100.00
62510;BME280;48558;48.242;11.654;2023-01-26T16:29:50;96344.69;;;-1.04;100.00
62510;BME280;48558;48.242;11.654;2023-01-26T16:34:02;96342.72;;;-1.04;100.00
62510;BME280;48558;48.242;11.654;2023-01-26T16:38:15;96349.31;;;-1.01;100.00
62510;BME280;48558;48.242;11.654;2023-01-26T16:42:28;96356.28;;;-1.07;100.00
62510;BME280;48558;48.242;11.654;2023-01-26T16:46:40;96340.81;;;-1.07;100.00
62510;BME280;48558;48.242;11.654;2023-01-26T16:50:53;96358.25;;;-0.94;100.00
62510;BME280;48558;48.242;11.654;2023-01-26T16:55:09;96348.16;;;-0.97;100.00
62510;BME280;48558;48.242;11.654;2023-01-26T16:59:24;96328.41;;;-1.11;100.00
62510;BME280;48558;48.242;11.654;2023-01-26T17:03:37;96362.47;;;-1.03;100.00
62510;BME280;48558;48.242;11.654;2023-01-26T17:07:49;96371.00;;;-0.94;100.00
62510;BME280;48558;48.242;11.654;2023-01-26T17:12:02;96370.63;;;-0.86;100.00
62510;BME280;48558;48.242;11.654;2023-01-26T17:16:27;96371.03;;;-0.80;100.00
62510;BME280;48558;48.242;11.654;2023-01-26T17:21:01;96374.13;;;-0.71;100.00
62510;BME280;48558;48.242;11.654;2023-01-26T17:25:15;96372.59;;;-0.76;100.00
62510;BME280;48558;48.242;11.654;2023-01-26T17:29:28;96362.50;;;-0.86;100.00
62510;BME280;48558;48.242;11.654;2023-01-26T17:33:44;96366.00;;;-0.71;100.00
62510;BME280;48558;48.242;11.654;2023-01-26T17:37:57;96357.47;;;-0.73;100.00
62510;BME280;48558;48.242;11.654;2023-01-26T17:42:10;96367.53;;;-0.70;100.00
62510;BME280;48558;48.242;11.654;2023-01-26T17:46:23;96370.25;;;-0.81;100.00
62510;BME280;48558;48.242;11.654;2023-01-26T17:50:35;96359.78;;;-0.79;100.00
62510;BME280;48558;48.242;11.654;2023-01-26T17:54:57;96358.25;;;-0.76;100.00
62510;BME280;48558;48.242;11.654;2023-01-26T17:59:10;96368.72;;;-0.57;100.00
62510;BME280;48558;48.242;11.654;2023-01-26T18:03:22;96354.34;;;-0.61;100.00
62510;BME280;48558;48.242;11.654;2023-01-26T18:07:37;96362.47;;;-0.47;100.00
62510;BME280;48558;48.242;11.654;2023-01-26T18:11:49;96364.44;;;-0.61;100.00
62510;BME280;48558;48.242;11.654;2023-01-26T18:16:04;96350.88;;;-0.68;100.00
62510;BME280;48558;48.242;11.654;2023-01-26T18:20:18;96343.50;;;-0.79;100.00
62510;BME280;48558;48.242;11.654;2023-01-26T18:24:30;96370.25;;;-0.63;100.00
62510;BME280;48558;48.242;11.654;2023-01-26T18:28:43;96353.59;;;-0.72;100.00
62510;BME280;48558;48.242;11.654;2023-01-26T18:32:56;96364.81;;;-0.56;100.00
62510;BME280;48558;48.242;11.654;2023-01-26T18:37:09;96359.78;;;-0.57;100.00
62510;BME280;48558;48.242;11.654;2023-01-26T18:41:32;96335.38;;;-0.82;100.00
62510;BME280;48558;48.242;11.654;2023-01-26T18:45:45;96360.16;;;-0.38;100.00
62510;BME280;48558;48.242;11.654;2023-01-26T18:50:08;96365.19;;;-0.61;100.00
62510;BME280;48558;48.242;11.654;2023-01-26T18:54:21;96357.84;;;-0.67;100.00
62510;BME280;48558;48.242;11.654;2023-01-26T18:58:36;96370.25;;;-0.70;100.00
62510;BME280;48558;48.242;11.654;2023-01-26T19:02:50;96367.94;;;-0.64;100.00
62510;BME280;48558;48.242;11.654;2023-01-26T19:07:02;96365.22;;;-0.72;100.00
62510;BME280;48558;48.242;11.654;2023-01-26T19:11:15;96363.66;;;-0.69;100.00
62510;BME280;48558;48.242;11.654;2023-01-26T19:15:28;96371.44;;;-0.64;100.00
62510;BME280;48558;48.242;11.654;2023-01-26T19:19:40;96355.53;;;-0.62;100.00
62510;BME280;48558;48.242;11.654;2023-01-26T19:23:55;96364.81;;;-0.56;100.00
62510;BME280;48558;48.242;11.654;2023-01-26T19:28:09;96356.69;;;-0.77;100.00
62510;BME280;48558;48.242;11.654;2023-01-26T19:32:22;96360.56;;;-0.53;100.00
62510;BME280;48558;48.242;11.654;2023-01-26T19:36:35;96352.44;;;-0.57;100.00
62510;BME280;48558;48.242;11.654;2023-01-26T19:40:49;96360.94;;;-0.51;100.00
62510;BME280;48558;48.242;11.654;2023-01-26T19:45:03;96360.56;;;-0.71;100.00
62510;BME280;48558;48.242;11.654;2023-01-26T19:49:15;96347.00;;;-0.71;100.00
62510;BME280;48558;48.242;11.654;2023-01-26T19:53:33;96367.16;;;-0.68;100.00
62510;BME280;48558;48.242;11.654;2023-01-26T19:57:47;96370.63;;;-0.61;100.00
62510;BME280;48558;48.242;11.654;2023-01-26T20:02:00;96359.81;;;-0.68;100.00
62510;BME280;48558;48.242;11.654;2023-01-26T20:06:14;96361.72;;;-0.76;100.00
62510;BME280;48558;48.242;11.654;2023-01-26T20:10:28;96346.59;;;-0.77;100.00
62510;BME280;48558;48.242;11.654;2023-01-26T20:14:40;96360.94;;;-0.58;100.00
62510;BME280;48558;48.242;11.654;2023-01-26T20:18:54;96352.44;;;-0.64;100.00
62510;BME280;48558;48.242;11.654;2023-01-26T20:23:07;96361.75;;;-0.61;100.00
62510;BME280;48558;48.242;11.654;2023-01-26T20:27:20;96358.25;;;-0.55;100.00
62510;BME280;48558;48.242;11.654;2023-01-26T20:31:32;96354.75;;;-0.62;100.00
62510;BME280;48558;48.242;11.654;2023-01-26T20:35:55;96334.59;;;-0.65;100.00
62510;BME280;48558;48.242;11.654;2023-01-26T20:40:08;96353.19;;;-0.60;100.00
62510;BME280;48558;48.242;11.654;2023-01-26T20:44:22;96353.19;;;-0.74;100.00
62510;BME280;48558;48.242;11.654;2023-01-26T20:48:35;96349.72;;;-0.82;100.00
62510;BME280;48558;48.242;11.654;2023-01-26T20:52:47;96347.00;;;-0.75;100.00
62510;BME280;48558;48.242;11.654;2023-01-26T20:57:01;96348.94;;;-0.68;100.00
62510;BME280;48558;48.242;11.654;2023-01-26T21:01:15;96344.69;;;-0.69;100.00
62510;BME280;48558;48.242;11.654;2023-01-26T21:05:28;96340.78;;;-0.72;100.00
62510;BME280;48558;48.242;11.654;2023-01-26T21:09:41;96340.00;;;-0.65;100.00
62510;BME280;48558;48.242;11.654;2023-01-26T21:13:54;96327.22;;;-0.64;100.00
62510;BME280;48558;48.242;11.654;2023-01-26T21:18:15;96347.00;;;-0.64;100.00
62510;BME280;48558;48.242;11.654;2023-01-26T21:22:28;96345.06;;;-0.74;100.00
62510;BME280;48558;48.242;11.654;2023-01-26T21:26:41;96347.78;;;-0.78;100.00
62510;BME280;48558;48.242;11.654;2023-01-26T21:31:13;96338.09;;;-0.96;100.00
62510;BME280;48558;48.242;11.654;2023-01-26T21:35:27;96341.56;;;-0.75;100.00
62510;BME280;48558;48.242;11.654;2023-01-26T21:39:39;96313.69;;;-0.82;100.00
62510;BME280;48558;48.242;11.654;2023-01-26T21:44:00;96335.75;;;-0.69;100.00
62510;BME280;48558;48.242;11.654;2023-01-26T21:48:14;96333.44;;;-0.85;100.00
62510;BME280;48558;48.242;11.654;2023-01-26T21:52:38;96336.16;;;-0.78;100.00
62510;BME280;48558;48.242;11.654;2023-01-26T21:57:10;96343.91;;;-0.73;100.00
62510;BME280;48558;48.242;11.654;2023-01-26T22:01:43;96344.28;;;-0.71;100.00
62510;BME280;48558;48.242;11.654;2023-01-26T22:05:58;96340.41;;;-0.66;100.00
62510;BME280;48558;48.242;11.654;2023-01-26T22:10:18;96332.66;;;-0.75;100.00
62510;BME280;48558;48.242;11.654;2023-01-26T22:14:31;96324.53;;;-0.79;100.00
62510;BME280;48558;48.242;11.654;2023-01-26T22:18:44;96320.25;;;-0.90;100.00
62510;BME280;48558;48.242;11.654;2023-01-26T22:22:56;96321.81;;;-0.86;100.00
62510;BME280;48558;48.242;11.654;2023-01-26T22:27:09;96323.38;;;-0.92;100.00
62510;BME280;48558;48.242;11.654;2023-01-26T22:31:28;96318.34;;;-0.93;100.00
62510;BME280;48558;48.242;11.654;2023-01-26T22:35:41;96319.09;;;-1.14;100.00
62510;BME280;48558;48.242;11.654;2023-01-26T22:39:53;96324.16;;;-0.84;100.00
62510;BME280;48558;48.242;11.654;2023-01-26T22:44:06;96323.75;;;-0.72;100.00
62510;BME280;48558;48.242;11.654;2023-01-26T22:48:20;96322.97;;;-0.62;100.00
62510;BME280;48558;48.242;11.654;2023-01-26T22:52:32;96322.19;;;-0.94;100.00
62510;BME280;48558;48.242;11.654;2023-01-26T22:56:45;96331.88;;;-0.83;100.00
62510;BME280;48558;48.242;11.654;2023-01-26T23:01:05;96323.75;;;-0.72;100.00
62510;BME280;48558;48.242;11.654;2023-01-26T23:05:19;96308.25;;;-0.93;100.00
62510;BME280;48558;48.242;11.654;2023-01-26T23:09:32;96307.47;;;-0.90;100.00
62510;BME280;48558;48.242;11.654;2023-01-26T23:13:46;96314.44;;;-0.71;100.00
62510;BME280;48558;48.242;11.654;2023-01-26T23:18:00;96311.72;;;-0.67;100.00
62510;BME280;48558;48.242;11.654;2023-01-26T23:22:13;96292.72;;;-0.67;100.00
62510;BME280;48558;48.242;11.654;2023-01-26T23:26:26;96299.69;;;-0.63;100.00
62510;BME280;48558;48.242;11.654;2023-01-26T23:30:38;96297.41;;;-0.89;100.00
62510;BME280;48558;48.242;11.654;2023-01-26T23:34:51;96299.34;;;-0.86;100.00
62510;BME280;48558;48.242;11.654;2023-01-26T23:39:13;96305.16;;;-0.98;100.00
62510;BME280;48558;48.242;11.654;2023-01-26T23:43:26;96309.41;;;-0.97;100.00
62510;BME280;48558;48.242;11.654;2023-01-26T23:47:39;96285.78;;;-1.04;100.00
62510;BME280;48558;48.242;11.654;2023-01-26T23:51:52;96298.56;;;-0.87;100.00
62510;BME280;48558;48.242;11.654;2023-01-26T23:56:08;96286.56;;;-0.68;100.00
